sensor_id;sensor_type;location;lat;lon;timestamp;pressure;altitude;pressure_sealevel;temperature
75431;BMP280;64127;51.488;5.462;2023-09-08T00:02:10;101461.97;;;25.48
75431;BMP280;64127;51.488;5.462;2023-09-08T00:04:42;101453.94;;;25.45
75431;BMP280;64127;51.488;5.462;2023-09-08T00:07:14;101451.25;;;25.45
75431;BMP280;64127;51.488;5.462;2023-09-08T00:09:46;101458.47;;;25.42
75431;BMP280;64127;51.488;5.462;2023-09-08T00:12:18;101458.50;;;25.40
75431;BMP280;64127;51.488;5.462;2023-09-08T00:14:51;101443.34;;;25.32
75431;BMP280;64127;51.488;5.462;2023-09-08T00:17:23;101454.94;;;25.35
75431;BMP280;64127;51.488;5.462;2023-09-08T00:19:57;101460.31;;;25.35
75431;BMP280;64127;51.488;5.462;2023-09-08T00:22:29;101455.03;;;25.24
75431;BMP280;64127;51.488;5.462;2023-09-08T00:25:02;101465.78;;;25.26
75431;BMP280;64127;51.488;5.462;2023-09-08T00:27:34;101462.22;;;25.21
75431;BMP280;64127;51.488;5.462;2023-09-08T00:30:07;101456.88;;;25.21
75431;BMP280;64127;51.488;5.462;2023-09-08T00:32:39;101464.09;;;25.16
75431;BMP280;64127;51.488;5.462;2023-09-08T00:35:11;101461.47;;;25.08
75431;BMP280;64127;51.488;5.462;2023-09-08T00:37:45;101447.22;;;24.97
75431;BMP280;64127;51.488;5.462;2023-09-08T00:40:17;101454.38;;;24.98
75431;BMP280;64127;51.488;5.462;2023-09-08T00:42:49;101466.03;;;24.99
75431;BMP280;64127;51.488;5.462;2023-09-08T00:45:22;101464.25;;;24.93
75431;BMP280;64127;51.488;5.462;2023-09-08T00:47:54;101457.16;;;24.88
75431;BMP280;64127;51.488;5.462;2023-09-08T00:50:27;101462.53;;;24.85
75431;BMP280;64127;51.488;5.462;2023-09-08T00:52:59;101456.28;;;24.78
75431;BMP280;64127;51.488;5.462;2023-09-08T00:55:32;101462.56;;;24.79
75431;BMP280;64127;51.488;5.462;2023-09-08T00:58:04;101448.25;;;24.73
75431;BMP280;64127;51.488;5.462;2023-09-08T01:00:36;101460.81;;;24.71
75431;BMP280;64127;51.488;5.462;2023-09-08T01:03:08;101454.56;;;24.69
75431;BMP280;64127;51.488;5.462;2023-09-08T01:05:41;101455.47;;;24.67
75431;BMP280;64127;51.488;5.462;2023-09-08T01:08:14;101452.81;;;24.64
75431;BMP280;64127;51.488;5.462;2023-09-08T01:10:47;101455.50;;;24.59
75431;BMP280;64127;51.488;5.462;2023-09-08T01:13:19;101459.16;;;24.55
75431;BMP280;64127;51.488;5.462;2023-09-08T01:15:51;101460.94;;;24.50
75431;BMP280;64127;51.488;5.462;2023-09-08T01:18:23;101461.84;;;24.46
75431;BMP280;64127;51.488;5.462;2023-09-08T01:21:41;101453.88;;;24.37
75431;BMP280;64127;51.488;5.462;2023-09-08T01:27:37;101459.28;;;24.30
75431;BMP280;64127;51.488;5.462;2023-09-08T01:30:10;101447.69;;;24.21
75431;BMP280;64127;51.488;5.462;2023-09-08T01:32:43;101462.88;;;24.24
75431;BMP280;64127;51.488;5.462;2023-09-08T01:35:16;101458.41;;;24.21
75431;BMP280;64127;51.488;5.462;2023-09-08T01:37:49;101456.63;;;24.19
75431;BMP280;64127;51.488;5.462;2023-09-08T01:40:21;101451.25;;;24.11
75431;BMP280;64127;51.488;5.462;2023-09-08T01:42:53;101464.72;;;24.13
75431;BMP280;64127;51.488;5.462;2023-09-08T01:45:25;101457.56;;;24.06
75431;BMP280;64127;51.488;5.462;2023-09-08T01:47:57;101465.59;;;24.06
75431;BMP280;64127;51.488;5.462;2023-09-08T01:50:29;101451.34;;;23.99
75431;BMP280;64127;51.488;5.462;2023-09-08T01:53:01;101455.81;;;23.97
75431;BMP280;64127;51.488;5.462;2023-09-08T01:55:33;101456.72;;;23.93
75431;BMP280;64127;51.488;5.462;2023-09-08T01:58:05;101453.13;;;23.91
75431;BMP280;64127;51.488;5.462;2023-09-08T02:00:37;101452.25;;;23.88
75431;BMP280;64127;51.488;5.462;2023-09-08T02:03:09;101460.31;;;23.86
75431;BMP280;64127;51.488;5.462;2023-09-08T02:05:41;101445.13;;;23.81
75431;BMP280;64127;51.488;5.462;2023-09-08T02:08:14;101444.25;;;23.77
75431;BMP280;64127;51.488;5.462;2023-09-08T02:10:46;101447.84;;;23.76
75431;BMP280;64127;51.488;5.462;2023-09-08T02:13:18;101452.31;;;23.72
75431;BMP280;64127;51.488;5.462;2023-09-08T02:15:50;101451.41;;;23.73
75431;BMP280;64127;51.488;5.462;2023-09-08T02:18:23;101453.19;;;23.70
75431;BMP280;64127;51.488;5.462;2023-09-08T02:20:56;101451.44;;;23.66
75431;BMP280;64127;51.488;5.462;2023-09-08T02:23:28;101450.53;;;23.64
75431;BMP280;64127;51.488;5.462;2023-09-08T02:26:01;101454.13;;;23.60
75431;BMP280;64127;51.488;5.462;2023-09-08T02:28:33;101447.00;;;23.57
75431;BMP280;64127;51.488;5.462;2023-09-08T02:31:05;101441.66;;;23.54
75431;BMP280;64127;51.488;5.462;2023-09-08T02:33:37;101440.78;;;23.49
75431;BMP280;64127;51.488;5.462;2023-09-08T02:36:09;101440.78;;;23.49
75431;BMP280;64127;51.488;5.462;2023-09-08T02:38:41;101441.66;;;23.45
75431;BMP280;64127;51.488;5.462;2023-09-08T02:41:13;101439.00;;;23.42
75431;BMP280;64127;51.488;5.462;2023-09-08T02:43:45;101437.16;;;23.40
75431;BMP280;64127;51.488;5.462;2023-09-08T02:46:17;101440.75;;;23.37
75431;BMP280;64127;51.488;5.462;2023-09-08T02:48:51;101438.97;;;23.35
75431;BMP280;64127;51.488;5.462;2023-09-08T02:51:23;101439.88;;;23.35
75431;BMP280;64127;51.488;5.462;2023-09-08T02:53:55;101441.66;;;23.30
75431;BMP280;64127;51.488;5.462;2023-09-08T02:56:27;101436.28;;;23.27
75431;BMP280;64127;51.488;5.462;2023-09-08T02:58:59;101439.88;;;23.24
75431;BMP280;64127;51.488;5.462;2023-09-08T03:01:31;101440.75;;;23.19
75431;BMP280;64127;51.488;5.462;2023-09-08T03:04:04;101445.22;;;23.20
75431;BMP280;64127;51.488;5.462;2023-09-08T03:06:36;101442.53;;;23.20
75431;BMP280;64127;51.488;5.462;2023-09-08T03:09:08;101441.69;;;23.15
75431;BMP280;64127;51.488;5.462;2023-09-08T03:11:40;101447.91;;;23.12
75431;BMP280;64127;51.488;5.462;2023-09-08T03:14:12;101434.53;;;23.08
75431;BMP280;64127;51.488;5.462;2023-09-08T03:16:44;101445.25;;;23.08
75431;BMP280;64127;51.488;5.462;2023-09-08T03:19:16;101444.34;;;23.06
75431;BMP280;64127;51.488;5.462;2023-09-08T03:21:48;101433.63;;;22.97
75431;BMP280;64127;51.488;5.462;2023-09-08T03:24:20;101450.56;;;23.05
75431;BMP280;64127;51.488;5.462;2023-09-08T03:26:52;101443.47;;;22.98
75431;BMP280;64127;51.488;5.462;2023-09-08T03:29:24;101422.94;;;22.83
75431;BMP280;64127;51.488;5.462;2023-09-08T03:31:56;101438.97;;;22.95
75431;BMP280;64127;51.488;5.462;2023-09-08T03:34:28;101442.56;;;22.93
75431;BMP280;64127;51.488;5.462;2023-09-08T03:37:01;101439.88;;;22.90
75431;BMP280;64127;51.488;5.462;2023-09-08T03:39:33;101443.44;;;22.89
75431;BMP280;64127;51.488;5.462;2023-09-08T03:42:05;101434.50;;;22.85
75431;BMP280;64127;51.488;5.462;2023-09-08T03:44:37;101438.09;;;22.84
75431;BMP280;64127;51.488;5.462;2023-09-08T03:47:09;101430.94;;;22.82
75431;BMP280;64127;51.488;5.462;2023-09-08T03:49:41;101420.25;;;22.72
75431;BMP280;64127;51.488;5.462;2023-09-08T03:52:13;101430.06;;;22.77
75431;BMP280;64127;51.488;5.462;2023-09-08T03:54:45;101399.69;;;22.58
75431;BMP280;64127;51.488;5.462;2023-09-08T03:57:18;101431.84;;;22.73
75431;BMP280;64127;51.488;5.462;2023-09-08T03:59:50;101433.59;;;22.71
75431;BMP280;64127;51.488;5.462;2023-09-08T04:02:22;101424.66;;;22.60
75431;BMP280;64127;51.488;5.462;2023-09-08T04:04:54;101438.06;;;22.67
75431;BMP280;64127;51.488;5.462;2023-09-08T04:07:26;101438.03;;;22.64
75431;BMP280;64127;51.488;5.462;2023-09-08T04:09:58;101432.69;;;22.63
75431;BMP280;64127;51.488;5.462;2023-09-08T04:12:30;101432.66;;;22.61
75431;BMP280;64127;51.488;5.462;2023-09-08T04:15:02;101426.44;;;22.59
75431;BMP280;64127;51.488;5.462;2023-09-08T04:17:35;101426.44;;;22.58
75431;BMP280;64127;51.488;5.462;2023-09-08T04:20:08;101433.56;;;22.57
75431;BMP280;64127;51.488;5.462;2023-09-08T04:22:40;101436.22;;;22.54
75431;BMP280;64127;51.488;5.462;2023-09-08T04:25:12;101413.94;;;22.46
75431;BMP280;64127;51.488;5.462;2023-09-08T04:27:44;101419.28;;;22.46
75431;BMP280;64127;51.488;5.462;2023-09-08T04:30:17;101420.19;;;22.48
75431;BMP280;64127;51.488;5.462;2023-09-08T04:32:50;101420.16;;;22.47
75431;BMP280;64127;51.488;5.462;2023-09-08T04:35:22;101415.72;;;22.43
75431;BMP280;64127;51.488;5.462;2023-09-08T04:37:54;101427.28;;;22.40
75431;BMP280;64127;51.488;5.462;2023-09-08T04:40:26;101415.69;;;22.37
75431;BMP280;64127;51.488;5.462;2023-09-08T04:42:59;101420.16;;;22.36
75431;BMP280;64127;51.488;5.462;2023-09-08T04:45:31;101424.59;;;22.34
75431;BMP280;64127;51.488;5.462;2023-09-08T04:48:04;101423.72;;;22.29
75431;BMP280;64127;51.488;5.462;2023-09-08T04:50:37;101427.28;;;22.31
75431;BMP280;64127;51.488;5.462;2023-09-08T04:53:09;101434.41;;;22.35
75431;BMP280;64127;51.488;5.462;2023-09-08T04:55:41;101428.13;;;22.30
75431;BMP280;64127;51.488;5.462;2023-09-08T04:58:13;101421.91;;;22.25
75431;BMP280;64127;51.488;5.462;2023-09-08T05:00:45;101434.38;;;22.26
75431;BMP280;64127;51.488;5.462;2023-09-08T05:03:17;101438.81;;;22.24
75431;BMP280;64127;51.488;5.462;2023-09-08T05:05:49;101428.09;;;22.19
75431;BMP280;64127;51.488;5.462;2023-09-08T05:08:22;101435.25;;;22.23
75431;BMP280;64127;51.488;5.462;2023-09-08T05:10:54;101437.94;;;22.22
75431;BMP280;64127;51.488;5.462;2023-09-08T05:13:26;101437.03;;;22.20
75431;BMP280;64127;51.488;5.462;2023-09-08T05:16:02;101437.94;;;22.19
75431;BMP280;64127;51.488;5.462;2023-09-08T05:18:43;101432.53;;;22.13
75431;BMP280;64127;51.488;5.462;2023-09-08T05:21:15;101448.59;;;22.20
75431;BMP280;64127;51.488;5.462;2023-09-08T05:23:47;101444.16;;;22.19
75431;BMP280;64127;51.488;5.462;2023-09-08T05:26:19;101441.47;;;22.18
75431;BMP280;64127;51.488;5.462;2023-09-08T05:28:51;101452.16;;;22.18
75431;BMP280;64127;51.488;5.462;2023-09-08T05:31:23;101449.50;;;22.18
75431;BMP280;64127;51.488;5.462;2023-09-08T05:33:55;101443.25;;;22.16
75431;BMP280;64127;51.488;5.462;2023-09-08T05:36:27;101447.72;;;22.18
75431;BMP280;64127;51.488;5.462;2023-09-08T05:39:01;101449.53;;;22.22
75431;BMP280;64127;51.488;5.462;2023-09-08T05:41:34;101448.63;;;22.19
75431;BMP280;64127;51.488;5.462;2023-09-08T05:44:06;101453.97;;;22.25
75431;BMP280;64127;51.488;5.462;2023-09-08T05:46:38;101454.00;;;22.28
75431;BMP280;64127;51.488;5.462;2023-09-08T05:49:10;101457.56;;;22.33
75431;BMP280;64127;51.488;5.462;2023-09-08T05:51:42;101451.34;;;22.37
75431;BMP280;64127;51.488;5.462;2023-09-08T05:54:14;101448.66;;;22.40
75431;BMP280;64127;51.488;5.462;2023-09-08T05:56:46;101450.47;;;22.44
75431;BMP280;64127;51.488;5.462;2023-09-08T05:59:18;101449.59;;;22.53
75431;BMP280;64127;51.488;5.462;2023-09-08T06:01:50;101453.19;;;22.59
75431;BMP280;64127;51.488;5.462;2023-09-08T06:04:22;101445.16;;;22.62
75431;BMP280;64127;51.488;5.462;2023-09-08T06:06:55;101453.25;;;22.76
75431;BMP280;64127;51.488;5.462;2023-09-08T06:09:27;101455.94;;;22.87
75431;BMP280;64127;51.488;5.462;2023-09-08T06:11:59;101460.41;;;22.97
75431;BMP280;64127;51.488;5.462;2023-09-08T06:14:31;101462.16;;;23.08
75431;BMP280;64127;51.488;5.462;2023-09-08T06:17:03;101466.63;;;23.20
75431;BMP280;64127;51.488;5.462;2023-09-08T06:19:35;101463.06;;;23.30
75431;BMP280;64127;51.488;5.462;2023-09-08T06:22:07;101455.03;;;23.38
75431;BMP280;64127;51.488;5.462;2023-09-08T06:24:39;101465.75;;;23.50
75431;BMP280;64127;51.488;5.462;2023-09-08T06:27:14;101463.06;;;23.59
75431;BMP280;64127;51.488;5.462;2023-09-08T06:29:46;101470.16;;;23.70
75431;BMP280;64127;51.488;5.462;2023-09-08T06:32:18;101470.16;;;23.81
75431;BMP280;64127;51.488;5.462;2023-09-08T06:34:50;101457.63;;;23.88
75431;BMP280;64127;51.488;5.462;2023-09-08T06:37:22;101462.94;;;24.00
75431;BMP280;64127;51.488;5.462;2023-09-08T06:39:55;101458.44;;;24.05
75431;BMP280;64127;51.488;5.462;2023-09-08T06:46:38;101453.94;;;24.27
75431;BMP280;64127;51.488;5.462;2023-09-08T06:49:11;101466.34;;;24.44
75431;BMP280;64127;51.488;5.462;2023-09-08T06:51:45;101447.56;;;24.47
75431;BMP280;64127;51.488;5.462;2023-09-08T06:54:19;101421.66;;;24.43
75431;BMP280;64127;51.488;5.462;2023-09-08T06:56:51;101462.53;;;24.82
75431;BMP280;64127;51.488;5.462;2023-09-08T06:59:24;101432.19;;;24.72
75431;BMP280;64127;51.488;5.462;2023-09-08T07:01:56;101428.59;;;24.70
75431;BMP280;64127;51.488;5.462;2023-09-08T07:04:29;101417.09;;;24.57
75431;BMP280;64127;51.488;5.462;2023-09-08T07:07:01;101359.19;;;24.23
75431;BMP280;64127;51.488;5.462;2023-09-08T07:09:42;101351.16;;;24.25
75431;BMP280;64127;51.488;5.462;2023-09-08T07:12:14;101464.19;;;25.01
75431;BMP280;64127;51.488;5.462;2023-09-08T07:14:47;101466.84;;;25.05
75431;BMP280;64127;51.488;5.462;2023-09-08T07:17:19;101438.28;;;24.97
75431;BMP280;64127;51.488;5.462;2023-09-08T07:19:52;101456.03;;;25.14
75431;BMP280;64127;51.488;5.462;2023-09-08T07:22:24;101398.97;;;24.93
75431;BMP280;64127;51.488;5.462;2023-09-08T07:25:03;101412.19;;;25.11
75431;BMP280;64127;51.488;5.462;2023-09-08T07:27:52;101353.38;;;24.84
75431;BMP280;64127;51.488;5.462;2023-09-08T07:30:42;101411.19;;;25.27
75431;BMP280;64127;51.488;5.462;2023-09-08T07:33:15;101474.31;;;25.73
75431;BMP280;64127;51.488;5.462;2023-09-08T07:35:47;101419.88;;;25.52
75431;BMP280;64127;51.488;5.462;2023-09-08T07:38:19;101358.38;;;25.23
75431;BMP280;64127;51.488;5.462;2023-09-08T07:40:52;101352.91;;;25.34
75431;BMP280;64127;51.488;5.462;2023-09-08T07:43:24;101420.38;;;25.89
75431;BMP280;64127;51.488;5.462;2023-09-08T07:45:57;101351.75;;;25.56
75431;BMP280;64127;51.488;5.462;2023-09-08T07:48:32;101348.94;;;25.66
75431;BMP280;64127;51.488;5.462;2023-09-08T07:51:08;101346.97;;;25.81
75431;BMP280;64127;51.488;5.462;2023-09-08T07:53:41;101359.38;;;25.91
75431;BMP280;64127;51.488;5.462;2023-09-08T07:56:17;101341.41;;;25.96
75431;BMP280;64127;51.488;5.462;2023-09-08T07:58:52;101421.34;;;26.50
75431;BMP280;64127;51.488;5.462;2023-09-08T08:01:26;101339.25;;;26.20
75431;BMP280;64127;51.488;5.462;2023-09-08T08:03:59;101458.28;;;27.02
75431;BMP280;64127;51.488;5.462;2023-09-08T08:06:31;101455.53;;;27.05
75431;BMP280;64127;51.488;5.462;2023-09-08T08:09:03;101452.72;;;27.11
75431;BMP280;64127;51.488;5.462;2023-09-08T08:11:36;101456.13;;;27.22
75431;BMP280;64127;51.488;5.462;2023-09-08T08:14:10;101454.13;;;27.33
75431;BMP280;64127;51.488;5.462;2023-09-08T08:16:42;101456.72;;;27.38
75431;BMP280;64127;51.488;5.462;2023-09-08T08:19:14;101453.06;;;27.42
75431;BMP280;64127;51.488;5.462;2023-09-08T08:21:46;101455.72;;;27.46
75431;BMP280;64127;51.488;5.462;2023-09-08T08:24:21;101458.19;;;27.58
75431;BMP280;64127;51.488;5.462;2023-09-08T08:26:53;101445.59;;;27.59
75431;BMP280;64127;51.488;5.462;2023-09-08T08:29:25;101440.97;;;27.65
75431;BMP280;64127;51.488;5.462;2023-09-08T08:31:57;101456.00;;;27.79
75431;BMP280;64127;51.488;5.462;2023-09-08T08:34:29;101454.03;;;27.87
75431;BMP280;64127;51.488;5.462;2023-09-08T08:37:01;101428.19;;;27.75
75431;BMP280;64127;51.488;5.462;2023-09-08T08:39:36;101411.22;;;27.70
75431;BMP280;64127;51.488;5.462;2023-09-08T08:42:10;101450.16;;;28.01
75431;BMP280;64127;51.488;5.462;2023-09-08T08:44:42;101463.09;;;28.27
75431;BMP280;64127;51.488;5.462;2023-09-08T08:47:16;101441.84;;;28.12
75431;BMP280;64127;51.488;5.462;2023-09-08T08:49:50;101452.38;;;28.24
75431;BMP280;64127;51.488;5.462;2023-09-08T08:52:29;101450.34;;;28.35
75431;BMP280;64127;51.488;5.462;2023-09-08T08:55:02;101416.47;;;28.20
75431;BMP280;64127;51.488;5.462;2023-09-08T08:57:39;101458.91;;;28.54
75431;BMP280;64127;51.488;5.462;2023-09-08T09:00:12;101440.75;;;28.60
75431;BMP280;64127;51.488;5.462;2023-09-08T09:02:48;101449.28;;;28.81
75431;BMP280;64127;51.488;5.462;2023-09-08T09:05:43;101398.34;;;28.64
75431;BMP280;64127;51.488;5.462;2023-09-08T09:08:19;101447.94;;;29.00
75431;BMP280;64127;51.488;5.462;2023-09-08T09:10:54;101428.22;;;28.95
75431;BMP280;64127;51.488;5.462;2023-09-08T09:13:26;101343.50;;;28.60
75431;BMP280;64127;51.488;5.462;2023-09-08T09:16:00;101400.22;;;28.99
75431;BMP280;64127;51.488;5.462;2023-09-08T09:19:03;101446.25;;;29.31
75431;BMP280;64127;51.488;5.462;2023-09-08T09:21:48;101421.16;;;29.25
75431;BMP280;64127;51.488;5.462;2023-09-08T09:24:40;101389.72;;;29.20
75431;BMP280;64127;51.488;5.462;2023-09-08T09:27:15;101368.03;;;29.22
75431;BMP280;64127;51.488;5.462;2023-09-08T09:29:49;101338.03;;;29.00
75431;BMP280;64127;51.488;5.462;2023-09-08T09:32:27;101336.97;;;29.06
75431;BMP280;64127;51.488;5.462;2023-09-08T09:35:03;101341.16;;;29.17
75431;BMP280;64127;51.488;5.462;2023-09-08T09:37:41;101348.03;;;29.31
75431;BMP280;64127;51.488;5.462;2023-09-08T09:40:13;101353.75;;;29.51
75431;BMP280;64127;51.488;5.462;2023-09-08T09:42:49;101434.88;;;30.15
75431;BMP280;64127;51.488;5.462;2023-09-08T09:45:25;101438.84;;;30.33
75431;BMP280;64127;51.488;5.462;2023-09-08T09:47:58;101437.59;;;30.45
75431;BMP280;64127;51.488;5.462;2023-09-08T09:50:36;101444.66;;;30.50
75431;BMP280;64127;51.488;5.462;2023-09-08T09:53:15;101440.34;;;30.43
75431;BMP280;64127;51.488;5.462;2023-09-08T09:55:47;101422.38;;;30.39
75431;BMP280;64127;51.488;5.462;2023-09-08T09:58:21;101386.28;;;30.39
75431;BMP280;64127;51.488;5.462;2023-09-08T10:00:54;101423.47;;;30.63
75431;BMP280;64127;51.488;5.462;2023-09-08T10:03:33;101440.75;;;30.87
75431;BMP280;64127;51.488;5.462;2023-09-08T10:06:06;101413.81;;;30.82
75431;BMP280;64127;51.488;5.462;2023-09-08T10:08:39;101397.44;;;30.85
75431;BMP280;64127;51.488;5.462;2023-09-08T10:11:29;101363.38;;;30.77
75431;BMP280;64127;51.488;5.462;2023-09-08T10:14:22;101432.47;;;31.19
75431;BMP280;64127;51.488;5.462;2023-09-08T10:16:59;101369.44;;;30.85
75431;BMP280;64127;51.488;5.462;2023-09-08T10:19:34;101414.41;;;31.18
75431;BMP280;64127;51.488;5.462;2023-09-08T10:22:26;101373.53;;;30.98
75431;BMP280;64127;51.488;5.462;2023-09-08T10:25:06;101377.59;;;31.11
75431;BMP280;64127;51.488;5.462;2023-09-08T10:27:43;101417.97;;;31.45
75431;BMP280;64127;51.488;5.462;2023-09-08T10:30:16;101413.97;;;31.56
75431;BMP280;64127;51.488;5.462;2023-09-08T10:32:50;101411.19;;;31.58
75431;BMP280;64127;51.488;5.462;2023-09-08T10:35:23;101433.47;;;31.67
75431;BMP280;64127;51.488;5.462;2023-09-08T10:38:28;101401.34;;;31.55
75431;BMP280;64127;51.488;5.462;2023-09-08T10:44:07;101432.38;;;31.96
75431;BMP280;64127;51.488;5.462;2023-09-08T10:46:39;101401.72;;;31.93
75431;BMP280;64127;51.488;5.462;2023-09-08T10:49:13;101383.56;;;31.95
75431;BMP280;64127;51.488;5.462;2023-09-08T10:52:07;101349.00;;;31.75
75431;BMP280;64127;51.488;5.462;2023-09-08T10:54:53;101335.38;;;31.77
75431;BMP280;64127;51.488;5.462;2023-09-08T10:57:27;101434.38;;;32.39
75431;BMP280;64127;51.488;5.462;2023-09-08T11:00:06;101413.25;;;32.46
75431;BMP280;64127;51.488;5.462;2023-09-08T11:02:50;101365.25;;;32.23
75431;BMP280;64127;51.488;5.462;2023-09-08T11:05:26;101427.28;;;32.58
75431;BMP280;64127;51.488;5.462;2023-09-08T11:08:09;101359.13;;;32.18
75431;BMP280;64127;51.488;5.462;2023-09-08T11:10:54;101353.19;;;32.30
75431;BMP280;64127;51.488;5.462;2023-09-08T11:13:34;101300.56;;;32.11
75431;BMP280;64127;51.488;5.462;2023-09-08T11:16:09;101313.53;;;32.26
75431;BMP280;64127;51.488;5.462;2023-09-08T11:18:41;101418.72;;;32.89
75431;BMP280;64127;51.488;5.462;2023-09-08T11:21:14;101415.56;;;32.78
75431;BMP280;64127;51.488;5.462;2023-09-08T11:24:08;101390.72;;;32.65
75431;BMP280;64127;51.488;5.462;2023-09-08T11:26:41;101424.78;;;32.96
75431;BMP280;64127;51.488;5.462;2023-09-08T11:29:20;101385.88;;;32.74
75431;BMP280;64127;51.488;5.462;2023-09-08T11:31:54;101389.84;;;32.87
75431;BMP280;64127;51.488;5.462;2023-09-08T11:34:26;101412.44;;;33.09
75431;BMP280;64127;51.488;5.462;2023-09-08T11:36:58;101375.97;;;32.93
75431;BMP280;64127;51.488;5.462;2023-09-08T11:39:30;101401.34;;;33.15
75431;BMP280;64127;51.488;5.462;2023-09-08T11:42:03;101407.31;;;33.23
75431;BMP280;64127;51.488;5.462;2023-09-08T11:44:36;101405.03;;;33.34
75431;BMP280;64127;51.488;5.462;2023-09-08T11:47:10;101397.41;;;33.42
75431;BMP280;64127;51.488;5.462;2023-09-08T11:49:43;101382.50;;;33.31
75431;BMP280;64127;51.488;5.462;2023-09-08T11:52:23;101280.19;;;32.85
75431;BMP280;64127;51.488;5.462;2023-09-08T11:54:58;101292.72;;;32.89
75431;BMP280;64127;51.488;5.462;2023-09-08T11:57:40;101290.97;;;32.88
75431;BMP280;64127;51.488;5.462;2023-09-08T12:00:21;101297.50;;;33.04
75431;BMP280;64127;51.488;5.462;2023-09-08T12:03:12;101389.91;;;33.47
75431;BMP280;64127;51.488;5.462;2023-09-08T12:06:00;101355.22;;;33.32
75431;BMP280;64127;51.488;5.462;2023-09-08T12:08:35;101270.56;;;32.98
75431;BMP280;64127;51.488;5.462;2023-09-08T12:11:11;101306.44;;;33.28
75431;BMP280;64127;51.488;5.462;2023-09-08T12:13:45;101307.59;;;33.22
75431;BMP280;64127;51.488;5.462;2023-09-08T12:16:21;101326.22;;;33.31
75431;BMP280;64127;51.488;5.462;2023-09-08T12:18:59;101318.06;;;33.11
75431;BMP280;64127;51.488;5.462;2023-09-08T12:21:35;101295.06;;;32.98
75431;BMP280;64127;51.488;5.462;2023-09-08T12:27:25;101396.94;;;33.73
75431;BMP280;64127;51.488;5.462;2023-09-08T12:29:59;101401.22;;;33.79
75431;BMP280;64127;51.488;5.462;2023-09-08T12:32:36;101353.22;;;33.56
75431;BMP280;64127;51.488;5.462;2023-09-08T12:35:10;101322.56;;;33.51
75431;BMP280;64127;51.488;5.462;2023-09-08T12:37:42;101270.56;;;33.38
75431;BMP280;64127;51.488;5.462;2023-09-08T12:40:15;101353.34;;;33.92
75431;BMP280;64127;51.488;5.462;2023-09-08T12:43:05;101321.19;;;33.62
75431;BMP280;64127;51.488;5.462;2023-09-08T12:45:58;101281.44;;;33.38
75431;BMP280;64127;51.488;5.462;2023-09-08T12:48:36;101345.69;;;33.81
75431;BMP280;64127;51.488;5.462;2023-09-08T12:51:12;101319.41;;;33.60
75431;BMP280;64127;51.488;5.462;2023-09-08T12:53:47;101367.81;;;33.94
75431;BMP280;64127;51.488;5.462;2023-09-08T12:56:19;101382.53;;;34.08
75431;BMP280;64127;51.488;5.462;2023-09-08T12:58:52;101271.59;;;33.54
75431;BMP280;64127;51.488;5.462;2023-09-08T13:01:28;101369.88;;;34.26
75431;BMP280;64127;51.488;5.462;2023-09-08T13:04:24;101270.16;;;33.66
75431;BMP280;64127;51.488;5.462;2023-09-08T13:07:16;101336.41;;;33.67
75431;BMP280;64127;51.488;5.462;2023-09-08T13:09:52;101249.06;;;33.12
75431;BMP280;64127;51.488;5.462;2023-09-08T13:12:28;101270.56;;;33.38
75431;BMP280;64127;51.488;5.462;2023-09-08T13:15:08;101325.81;;;33.79
75431;BMP280;64127;51.488;5.462;2023-09-08T13:17:40;101314.19;;;33.94
75431;BMP280;64127;51.488;5.462;2023-09-08T13:20:13;101295.19;;;33.93
75431;BMP280;64127;51.488;5.462;2023-09-08T13:22:49;101267.28;;;33.88
75431;BMP280;64127;51.488;5.462;2023-09-08T13:25:21;101368.38;;;34.56
75431;BMP280;64127;51.488;5.462;2023-09-08T13:28:02;101361.88;;;34.42
75431;BMP280;64127;51.488;5.462;2023-09-08T13:30:40;101245.66;;;33.66
75431;BMP280;64127;51.488;5.462;2023-09-08T13:33:16;101243.94;;;33.63
75431;BMP280;64127;51.488;5.462;2023-09-08T13:35:53;101269.78;;;33.92
75431;BMP280;64127;51.488;5.462;2023-09-08T13:38:27;101281.63;;;34.10
75431;BMP280;64127;51.488;5.462;2023-09-08T13:41:01;101309.75;;;34.29
75431;BMP280;64127;51.488;5.462;2023-09-08T13:43:37;101353.53;;;34.45
75431;BMP280;64127;51.488;5.462;2023-09-08T13:46:18;101275.50;;;34.05
75431;BMP280;64127;51.488;5.462;2023-09-08T13:52:25;101313.00;;;34.19
75431;BMP280;64127;51.488;5.462;2023-09-08T13:55:06;101329.94;;;34.25
75431;BMP280;64127;51.488;5.462;2023-09-08T13:57:45;101307.50;;;34.20
75431;BMP280;64127;51.488;5.462;2023-09-08T14:00:20;101328.31;;;34.40
75431;BMP280;64127;51.488;5.462;2023-09-08T14:02:59;101341.19;;;34.55
75431;BMP280;64127;51.488;5.462;2023-09-08T14:05:37;101294.97;;;34.35
75431;BMP280;64127;51.488;5.462;2023-09-08T14:08:19;101333.63;;;34.61
75431;BMP280;64127;51.488;5.462;2023-09-08T14:11:09;101237.03;;;33.94
75431;BMP280;64127;51.488;5.462;2023-09-08T14:13:55;101283.28;;;34.14
75431;BMP280;64127;51.488;5.462;2023-09-08T14:16:27;101291.66;;;34.28
75431;BMP280;64127;51.488;5.462;2023-09-08T14:19:03;101312.53;;;34.46
75431;BMP280;64127;51.488;5.462;2023-09-08T14:21:39;101284.13;;;34.33
75431;BMP280;64127;51.488;5.462;2023-09-08T14:24:16;101323.72;;;34.59
75431;BMP280;64127;51.488;5.462;2023-09-08T14:26:58;101315.59;;;34.57
75431;BMP280;64127;51.488;5.462;2023-09-08T14:29:34;101257.81;;;34.32
75431;BMP280;64127;51.488;5.462;2023-09-08T14:32:39;101260.38;;;34.35
75431;BMP280;64127;51.488;5.462;2023-09-08T14:35:32;101311.47;;;34.68
75431;BMP280;64127;51.488;5.462;2023-09-08T14:38:18;101265.28;;;34.46
75431;BMP280;64127;51.488;5.462;2023-09-08T14:41:01;101274.91;;;34.53
75431;BMP280;64127;51.488;5.462;2023-09-08T14:43:46;101282.72;;;34.60
75431;BMP280;64127;51.488;5.462;2023-09-08T14:46:19;101262.56;;;34.46
75431;BMP280;64127;51.488;5.462;2023-09-08T14:48:54;101217.72;;;34.17
75431;BMP280;64127;51.488;5.462;2023-09-08T14:51:31;101283.03;;;34.54
75431;BMP280;64127;51.488;5.462;2023-09-08T14:54:24;101317.72;;;34.87
75431;BMP280;64127;51.488;5.462;2023-09-08T14:57:12;101278.75;;;34.68
75431;BMP280;64127;51.488;5.462;2023-09-08T14:59:44;101276.66;;;34.73